sensor_id;sensor_type;location;lat;lon;timestamp;temperature;humidity
73141;SHT31;61339;50.558;4.696;2023-07-24T00:00:52;18.35;86.68
73141;SHT31;61339;50.558;4.696;2023-07-24T00:03:17;18.37;86.63
73141;SHT31;61339;50.558;4.696;2023-07-24T00:05:43;18.39;86.66
73141;SHT31;61339;50.558;4.696;2023-07-24T00:08:08;18.37;86.67
73141;SHT31;61339;50.558;4.696;2023-07-24T00:10:33;18.40;86.76
73141;SHT31;61339;50.558;4.696;2023-07-24T00:12:59;18.37;86.83
73141;SHT31;61339;50.558;4.696;2023-07-24T00:15:24;18.35;86.90
73141;SHT31;61339;50.558;4.696;2023-07-24T00:17:50;18.36;86.73
73141;SHT31;61339;50.558;4.696;2023-07-24T00:20:15;18.37;86.68
73141;SHT31;61339;50.558;4.696;2023-07-24T00:22:40;18.35;86.83
73141;SHT31;61339;50.558;4.696;2023-07-24T00:25:06;18.37;86.44
73141;SHT31;61339;50.558;4.696;2023-07-24T00:27:31;18.39;86.41
73141;SHT31;61339;50.558;4.696;2023-07-24T00:29:57;18.39;86.43
73141;SHT31;61339;50.558;4.696;2023-07-24T00:32:22;18.39;86.47
73141;SHT31;61339;50.558;4.696;2023-07-24T00:34:48;18.36;86.28
73141;SHT31;61339;50.558;4.696;2023-07-24T00:37:13;18.37;86.54
73141;SHT31;61339;50.558;4.696;2023-07-24T00:39:38;18.36;86.52
73141;SHT31;61339;50.558;4.696;2023-07-24T00:42:04;18.36;86.61
73141;SHT31;61339;50.558;4.696;2023-07-24T00:44:29;18.35;86.50
73141;SHT31;61339;50.558;4.696;2023-07-24T00:46:55;18.35;86.85
73141;SHT31;61339;50.558;4.696;2023-07-24T00:49:20;18.33;86.82
73141;SHT31;61339;50.558;4.696;2023-07-24T00:51:46;18.32;87.10
73141;SHT31;61339;50.558;4.696;2023-07-24T00:54:14;18.29;87.26
73141;SHT31;61339;50.558;4.696;2023-07-24T00:56:41;18.25;87.14
73141;SHT31;61339;50.558;4.696;2023-07-24T00:59:08;18.24;87.53
73141;SHT31;61339;50.558;4.696;2023-07-24T01:01:33;18.19;88.60
73141;SHT31;61339;50.558;4.696;2023-07-24T01:03:59;18.15;89.37
73141;SHT31;61339;50.558;4.696;2023-07-24T01:06:24;17.99;91.86
73141;SHT31;61339;50.558;4.696;2023-07-24T01:08:50;17.89;92.48
73141;SHT31;61339;50.558;4.696;2023-07-24T01:11:19;17.75;93.19
73141;SHT31;61339;50.558;4.696;2023-07-24T01:14:08;17.67;94.41
73141;SHT31;61339;50.558;4.696;2023-07-24T01:16:38;17.58;94.55
73141;SHT31;61339;50.558;4.696;2023-07-24T01:19:30;17.53;94.81
73141;SHT31;61339;50.558;4.696;2023-07-24T01:22:25;17.47;95.21
73141;SHT31;61339;50.558;4.696;2023-07-24T01:25:04;17.47;95.58
73141;SHT31;61339;50.558;4.696;2023-07-24T01:27:32;17.41;95.65
73141;SHT31;61339;50.558;4.696;2023-07-24T01:29:58;17.41;95.84
73141;SHT31;61339;50.558;4.696;2023-07-24T01:32:23;17.43;95.95
73141;SHT31;61339;50.558;4.696;2023-07-24T01:34:51;17.39;95.79
73141;SHT31;61339;50.558;4.696;2023-07-24T01:37:17;17.41;96.17
73141;SHT31;61339;50.558;4.696;2023-07-24T01:39:45;17.39;95.99
73141;SHT31;61339;50.558;4.696;2023-07-24T01:42:11;17.40;96.00
73141;SHT31;61339;50.558;4.696;2023-07-24T01:44:36;17.40;96.37
73141;SHT31;61339;50.558;4.696;2023-07-24T01:47:02;17.40;96.16
73141;SHT31;61339;50.558;4.696;2023-07-24T01:49:27;17.46;96.34
73141;SHT31;61339;50.558;4.696;2023-07-24T01:51:53;17.43;96.36
73141;SHT31;61339;50.558;4.696;2023-07-24T01:54:18;17.44;95.90
73141;SHT31;61339;50.558;4.696;2023-07-24T01:56:43;17.46;96.11
73141;SHT31;61339;50.558;4.696;2023-07-24T01:59:09;17.43;95.86
73141;SHT31;61339;50.558;4.696;2023-07-24T02:01:34;17.43;95.90
73141;SHT31;61339;50.558;4.696;2023-07-24T02:04:00;17.44;95.75
73141;SHT31;61339;50.558;4.696;2023-07-24T02:06:25;17.43;95.61
73141;SHT31;61339;50.558;4.696;2023-07-24T02:08:51;17.43;96.04
73141;SHT31;61339;50.558;4.696;2023-07-24T02:11:17;17.41;95.75
73141;SHT31;61339;50.558;4.696;2023-07-24T02:13:46;17.46;95.83
73141;SHT31;61339;50.558;4.696;2023-07-24T02:16:12;17.44;95.82
73141;SHT31;61339;50.558;4.696;2023-07-24T02:18:40;17.41;95.64
73141;SHT31;61339;50.558;4.696;2023-07-24T02:21:05;17.39;95.66
73141;SHT31;61339;50.558;4.696;2023-07-24T02:23:31;17.37;95.56
73141;SHT31;61339;50.558;4.696;2023-07-24T02:25:56;17.34;95.73
73141;SHT31;61339;50.558;4.696;2023-07-24T02:28:21;17.31;95.63
73141;SHT31;61339;50.558;4.696;2023-07-24T02:30:47;17.30;95.91
73141;SHT31;61339;50.558;4.696;2023-07-24T02:33:13;17.29;95.57
73141;SHT31;61339;50.558;4.696;2023-07-24T02:35:39;17.26;95.72
73141;SHT31;61339;50.558;4.696;2023-07-24T02:38:05;17.26;95.89
73141;SHT31;61339;50.558;4.696;2023-07-24T02:40:30;17.22;95.90
73141;SHT31;61339;50.558;4.696;2023-07-24T02:42:56;17.26;95.89
73141;SHT31;61339;50.558;4.696;2023-07-24T02:45:21;17.24;95.63
73141;SHT31;61339;50.558;4.696;2023-07-24T02:47:46;17.20;95.74
73141;SHT31;61339;50.558;4.696;2023-07-24T02:50:12;17.20;95.39
73141;SHT31;61339;50.558;4.696;2023-07-24T02:52:37;17.20;95.53
73141;SHT31;61339;50.558;4.696;2023-07-24T02:55:03;17.23;95.73
73141;SHT31;61339;50.558;4.696;2023-07-24T02:57:28;17.23;95.75
73141;SHT31;61339;50.558;4.696;2023-07-24T02:59:54;17.24;95.39
73141;SHT31;61339;50.558;4.696;2023-07-24T03:02:19;17.24;95.53
73141;SHT31;61339;50.558;4.696;2023-07-24T03:04:44;17.27;95.53
73141;SHT31;61339;50.558;4.696;2023-07-24T03:07:10;17.27;95.42
73141;SHT31;61339;50.558;4.696;2023-07-24T03:09:35;17.26;95.41
73141;SHT31;61339;50.558;4.696;2023-07-24T03:12:00;17.26;95.06
73141;SHT31;61339;50.558;4.696;2023-07-24T03:14:26;17.24;95.10
73141;SHT31;61339;50.558;4.696;2023-07-24T03:16:51;17.26;95.07
73141;SHT31;61339;50.558;4.696;2023-07-24T03:19:16;17.22;95.02
73141;SHT31;61339;50.558;4.696;2023-07-24T03:21:43;17.19;95.11
73141;SHT31;61339;50.558;4.696;2023-07-24T03:24:08;17.16;95.24
73141;SHT31;61339;50.558;4.696;2023-07-24T03:26:33;17.16;95.18
73141;SHT31;61339;50.558;4.696;2023-07-24T03:29:00;17.12;95.11
73141;SHT31;61339;50.558;4.696;2023-07-24T03:31:25;17.15;94.94
73141;SHT31;61339;50.558;4.696;2023-07-24T03:33:50;17.12;95.09
73141;SHT31;61339;50.558;4.696;2023-07-24T03:36:16;17.08;95.16
73141;SHT31;61339;50.558;4.696;2023-07-24T03:38:41;17.09;95.20
73141;SHT31;61339;50.558;4.696;2023-07-24T03:41:06;17.10;95.18
73141;SHT31;61339;50.558;4.696;2023-07-24T03:43:32;17.10;94.89
73141;SHT31;61339;50.558;4.696;2023-07-24T03:45:57;17.17;94.89
73141;SHT31;61339;50.558;4.696;2023-07-24T03:48:23;17.19;94.80
73141;SHT31;61339;50.558;4.696;2023-07-24T03:50:50;17.22;94.62
73141;SHT31;61339;50.558;4.696;2023-07-24T03:53:16;17.22;94.51
73141;SHT31;61339;50.558;4.696;2023-07-24T03:55:41;17.26;94.28
73141;SHT31;61339;50.558;4.696;2023-07-24T03:58:06;17.27;94.32
73141;SHT31;61339;50.558;4.696;2023-07-24T04:00:32;17.24;93.85
73141;SHT31;61339;50.558;4.696;2023-07-24T04:02:57;17.22;93.73
73141;SHT31;61339;50.558;4.696;2023-07-24T04:05:23;17.17;93.68
73141;SHT31;61339;50.558;4.696;2023-07-24T04:07:48;17.16;93.86
73141;SHT31;61339;50.558;4.696;2023-07-24T04:10:13;17.15;93.73
73141;SHT31;61339;50.558;4.696;2023-07-24T04:12:39;17.15;93.90
73141;SHT31;61339;50.558;4.696;2023-07-24T04:15:05;17.17;93.69
73141;SHT31;61339;50.558;4.696;2023-07-24T04:17:30;17.16;93.41
73141;SHT31;61339;50.558;4.696;2023-07-24T04:19:57;17.17;93.42
73141;SHT31;61339;50.558;4.696;2023-07-24T04:22:22;17.20;93.23
73141;SHT31;61339;50.558;4.696;2023-07-24T04:24:48;17.20;93.28
73141;SHT31;61339;50.558;4.696;2023-07-24T04:27:13;17.22;93.38
73141;SHT31;61339;50.558;4.696;2023-07-24T04:29:39;17.22;93.17
73141;SHT31;61339;50.558;4.696;2023-07-24T04:32:04;17.24;92.99
73141;SHT31;61339;50.558;4.696;2023-07-24T04:34:29;17.23;92.70
73141;SHT31;61339;50.558;4.696;2023-07-24T04:36:55;17.24;92.64
73141;SHT31;61339;50.558;4.696;2023-07-24T04:39:20;17.31;92.41
73141;SHT31;61339;50.558;4.696;2023-07-24T04:41:46;17.34;92.06
73141;SHT31;61339;50.558;4.696;2023-07-24T04:44:11;17.37;92.16
73141;SHT31;61339;50.558;4.696;2023-07-24T04:46:36;17.41;91.69
73141;SHT31;61339;50.558;4.696;2023-07-24T04:49:02;17.47;91.56
73141;SHT31;61339;50.558;4.696;2023-07-24T04:51:27;17.57;91.23
73141;SHT31;61339;50.558;4.696;2023-07-24T04:53:53;17.63;90.93
73141;SHT31;61339;50.558;4.696;2023-07-24T04:56:19;17.68;90.52
73141;SHT31;61339;50.558;4.696;2023-07-24T04:58:44;17.67;90.44
73141;SHT31;61339;50.558;4.696;2023-07-24T05:01:09;17.66;90.40
73141;SHT31;61339;50.558;4.696;2023-07-24T05:03:35;17.67;90.58
73141;SHT31;61339;50.558;4.696;2023-07-24T05:06:00;17.66;90.35
73141;SHT31;61339;50.558;4.696;2023-07-24T05:08:25;17.63;90.32
73141;SHT31;61339;50.558;4.696;2023-07-24T05:10:57;17.60;90.46
73141;SHT31;61339;50.558;4.696;2023-07-24T05:13:23;17.60;90.10
73141;SHT31;61339;50.558;4.696;2023-07-24T05:15:49;17.57;90.47
73141;SHT31;61339;50.558;4.696;2023-07-24T05:18:14;17.57;90.23
73141;SHT31;61339;50.558;4.696;2023-07-24T05:20:44;17.54;90.08
73141;SHT31;61339;50.558;4.696;2023-07-24T05:23:10;17.57;90.18
73141;SHT31;61339;50.558;4.696;2023-07-24T05:25:35;17.51;90.31
73141;SHT31;61339;50.558;4.696;2023-07-24T05:28:00;17.54;89.88
73141;SHT31;61339;50.558;4.696;2023-07-24T05:30:26;17.51;89.96
73141;SHT31;61339;50.558;4.696;2023-07-24T05:32:51;17.57;89.85
73141;SHT31;61339;50.558;4.696;2023-07-24T05:35:17;17.57;89.72
73141;SHT31;61339;50.558;4.696;2023-07-24T05:37:42;17.54;89.40
73141;SHT31;61339;50.558;4.696;2023-07-24T05:40:08;17.54;89.47
73141;SHT31;61339;50.558;4.696;2023-07-24T05:42:33;17.53;89.73
73141;SHT31;61339;50.558;4.696;2023-07-24T05:45:05;17.53;89.71
73141;SHT31;61339;50.558;4.696;2023-07-24T05:47:31;17.55;89.66
73141;SHT31;61339;50.558;4.696;2023-07-24T05:49:56;17.57;89.44
73141;SHT31;61339;50.558;4.696;2023-07-24T05:52:22;17.55;88.95
73141;SHT31;61339;50.558;4.696;2023-07-24T05:54:47;17.55;89.16
73141;SHT31;61339;50.558;4.696;2023-07-24T05:57:12;17.55;89.55
73141;SHT31;61339;50.558;4.696;2023-07-24T05:59:38;17.64;89.77
73141;SHT31;61339;50.558;4.696;2023-07-24T06:02:03;17.64;89.16
73141;SHT31;61339;50.558;4.696;2023-07-24T06:04:28;17.70;89.44
73141;SHT31;61339;50.558;4.696;2023-07-24T06:06:54;17.74;88.64
73141;SHT31;61339;50.558;4.696;2023-07-24T06:09:19;17.78;88.72
73141;SHT31;61339;50.558;4.696;2023-07-24T06:11:45;17.84;88.54
73141;SHT31;61339;50.558;4.696;2023-07-24T06:14:10;17.91;87.97
73141;SHT31;61339;50.558;4.696;2023-07-24T06:16:35;17.87;88.12
73141;SHT31;61339;50.558;4.696;2023-07-24T06:19:01;17.82;88.07
73141;SHT31;61339;50.558;4.696;2023-07-24T06:21:26;17.77;88.07
73141;SHT31;61339;50.558;4.696;2023-07-24T06:23:51;18.12;87.17
73141;SHT31;61339;50.558;4.696;2023-07-24T06:26:17;18.96;84.75
73141;SHT31;61339;50.558;4.696;2023-07-24T06:28:43;19.28;83.50
73141;SHT31;61339;50.558;4.696;2023-07-24T06:31:08;19.77;81.81
73141;SHT31;61339;50.558;4.696;2023-07-24T06:33:33;19.92;81.24
73141;SHT31;61339;50.558;4.696;2023-07-24T06:35:59;19.72;82.05
73141;SHT31;61339;50.558;4.696;2023-07-24T06:38:24;19.66;82.51
73141;SHT31;61339;50.558;4.696;2023-07-24T06:40:50;20.16;81.42
73141;SHT31;61339;50.558;4.696;2023-07-24T06:43:15;19.96;81.48
73141;SHT31;61339;50.558;4.696;2023-07-24T06:45:41;19.70;82.03
73141;SHT31;61339;50.558;4.696;2023-07-24T06:48:06;19.51;82.97
73141;SHT31;61339;50.558;4.696;2023-07-24T06:50:31;19.45;83.16
73141;SHT31;61339;50.558;4.696;2023-07-24T06:52:57;19.52;82.72
73141;SHT31;61339;50.558;4.696;2023-07-24T06:55:22;19.62;82.09
73141;SHT31;61339;50.558;4.696;2023-07-24T06:57:47;19.61;81.79
73141;SHT31;61339;50.558;4.696;2023-07-24T07:00:13;19.61;81.70
73141;SHT31;61339;50.558;4.696;2023-07-24T07:02:39;19.58;80.88
73141;SHT31;61339;50.558;4.696;2023-07-24T07:05:05;19.52;81.74
73141;SHT31;61339;50.558;4.696;2023-07-24T07:07:31;19.42;82.09
73141;SHT31;61339;50.558;4.696;2023-07-24T07:09:56;19.46;82.17
73141;SHT31;61339;50.558;4.696;2023-07-24T07:12:22;19.62;82.03
73141;SHT31;61339;50.558;4.696;2023-07-24T07:14:48;19.73;81.07
73141;SHT31;61339;50.558;4.696;2023-07-24T07:17:13;19.79;80.99
73141;SHT31;61339;50.558;4.696;2023-07-24T07:19:38;19.92;81.08
73141;SHT31;61339;50.558;4.696;2023-07-24T07:22:04;19.96;80.36
73141;SHT31;61339;50.558;4.696;2023-07-24T07:24:29;20.17;80.35
73141;SHT31;61339;50.558;4.696;2023-07-24T07:26:55;20.21;79.51
73141;SHT31;61339;50.558;4.696;2023-07-24T07:29:20;20.17;79.71
73141;SHT31;61339;50.558;4.696;2023-07-24T07:31:45;20.09;80.14
73141;SHT31;61339;50.558;4.696;2023-07-24T07:34:11;19.98;80.36
73141;SHT31;61339;50.558;4.696;2023-07-24T07:36:36;19.90;80.66
73141;SHT31;61339;50.558;4.696;2023-07-24T07:39:02;19.87;80.67
73141;SHT31;61339;50.558;4.696;2023-07-24T07:41:27;19.87;80.59
73141;SHT31;61339;50.558;4.696;2023-07-24T07:43:54;19.98;79.26
73141;SHT31;61339;50.558;4.696;2023-07-24T07:46:19;19.93;79.33
73141;SHT31;61339;50.558;4.696;2023-07-24T07:48:45;19.94;79.55
73141;SHT31;61339;50.558;4.696;2023-07-24T07:51:11;20.16;79.48
73141;SHT31;61339;50.558;4.696;2023-07-24T07:53:37;20.94;76.83
73141;SHT31;61339;50.558;4.696;2023-07-24T07:56:03;21.16;76.63
73141;SHT31;61339;50.558;4.696;2023-07-24T07:58:29;21.30;75.66
73141;SHT31;61339;50.558;4.696;2023-07-24T08:00:55;21.34;75.65
73141;SHT31;61339;50.558;4.696;2023-07-24T08:03:20;21.88;74.20
73141;SHT31;61339;50.558;4.696;2023-07-24T08:05:46;22.80;71.79
73141;SHT31;61339;50.558;4.696;2023-07-24T08:08:11;22.99;70.53
73141;SHT31;61339;50.558;4.696;2023-07-24T08:10:40;23.15;67.88
73141;SHT31;61339;50.558;4.696;2023-07-24T08:13:06;23.15;68.29
73141;SHT31;61339;50.558;4.696;2023-07-24T08:15:36;22.64;68.97
73141;SHT31;61339;50.558;4.696;2023-07-24T08:18:02;21.94;71.29
73141;SHT31;61339;50.558;4.696;2023-07-24T08:20:28;21.43;72.74
73141;SHT31;61339;50.558;4.696;2023-07-24T08:22:53;21.03;74.20
73141;SHT31;61339;50.558;4.696;2023-07-24T08:25:18;20.74;75.34
73141;SHT31;61339;50.558;4.696;2023-07-24T08:27:44;20.64;76.51
73141;SHT31;61339;50.558;4.696;2023-07-24T08:30:09;20.57;76.17
73141;SHT31;61339;50.558;4.696;2023-07-24T08:32:35;20.43;77.10
73141;SHT31;61339;50.558;4.696;2023-07-24T08:35:01;20.43;78.49
73141;SHT31;61339;50.558;4.696;2023-07-24T08:37:26;20.34;79.21
73141;SHT31;61339;50.558;4.696;2023-07-24T08:39:51;20.21;80.20
73141;SHT31;61339;50.558;4.696;2023-07-24T08:42:17;20.07;81.15
73141;SHT31;61339;50.558;4.696;2023-07-24T08:44:43;19.94;81.92
73141;SHT31;61339;50.558;4.696;2023-07-24T08:47:10;19.77;82.52
73141;SHT31;61339;50.558;4.696;2023-07-24T08:49:38;19.61;82.78
73141;SHT31;61339;50.558;4.696;2023-07-24T08:52:05;19.61;83.42
73141;SHT31;61339;50.558;4.696;2023-07-24T08:54:32;19.72;83.10
73141;SHT31;61339;50.558;4.696;2023-07-24T08:57:01;19.82;82.60
73141;SHT31;61339;50.558;4.696;2023-07-24T08:59:27;20.04;82.69
73141;SHT31;61339;50.558;4.696;2023-07-24T09:01:52;20.35;81.03
73141;SHT31;61339;50.558;4.696;2023-07-24T09:04:18;21.07;78.65
73141;SHT31;61339;50.558;4.696;2023-07-24T09:06:45;21.46;78.10
73141;SHT31;61339;50.558;4.696;2023-07-24T09:09:14;21.49;77.30
73141;SHT31;61339;50.558;4.696;2023-07-24T09:11:52;21.75;76.22
73141;SHT31;61339;50.558;4.696;2023-07-24T09:14:24;21.55;76.14
73141;SHT31;61339;50.558;4.696;2023-07-24T09:17:03;21.00;76.66
73141;SHT31;61339;50.558;4.696;2023-07-24T09:19:29;21.13;77.02
73141;SHT31;61339;50.558;4.696;2023-07-24T09:21:54;22.15;75.43
73141;SHT31;61339;50.558;4.696;2023-07-24T09:24:20;22.39;73.06
73141;SHT31;61339;50.558;4.696;2023-07-24T09:26:52;22.56;73.30
73141;SHT31;61339;50.558;4.696;2023-07-24T09:29:18;23.03;70.09
73141;SHT31;61339;50.558;4.696;2023-07-24T09:31:44;22.96;69.93
73141;SHT31;61339;50.558;4.696;2023-07-24T09:34:15;22.86;69.96
73141;SHT31;61339;50.558;4.696;2023-07-24T09:36:41;22.64;71.11
73141;SHT31;61339;50.558;4.696;2023-07-24T09:39:06;22.39;72.01
73141;SHT31;61339;50.558;4.696;2023-07-24T09:41:35;22.05;72.42
73141;SHT31;61339;50.558;4.696;2023-07-24T09:44:01;22.00;73.99
73141;SHT31;61339;50.558;4.696;2023-07-24T09:46:26;21.88;74.38
73141;SHT31;61339;50.558;4.696;2023-07-24T09:48:53;22.05;73.69
73141;SHT31;61339;50.558;4.696;2023-07-24T09:51:20;22.33;73.19
73141;SHT31;61339;50.558;4.696;2023-07-24T09:53:51;22.38;72.96
73141;SHT31;61339;50.558;4.696;2023-07-24T09:56:19;22.62;73.17
73141;SHT31;61339;50.558;4.696;2023-07-24T09:58:46;23.47;70.54
73141;SHT31;61339;50.558;4.696;2023-07-24T10:01:14;23.25;70.91
73141;SHT31;61339;50.558;4.696;2023-07-24T10:03:46;22.89;70.57
73141;SHT31;61339;50.558;4.696;2023-07-24T10:06:11;22.79;71.29
73141;SHT31;61339;50.558;4.696;2023-07-24T10:08:38;23.00;70.09
73141;SHT31;61339;50.558;4.696;2023-07-24T10:11:04;22.72;72.06
73141;SHT31;61339;50.558;4.696;2023-07-24T10:13:31;22.04;76.19
73141;SHT31;61339;50.558;4.696;2023-07-24T10:15:57;20.92;77.90
73141;SHT31;61339;50.558;4.696;2023-07-24T10:18:27;20.10;79.64
73141;SHT31;61339;50.558;4.696;2023-07-24T10:21:07;19.96;80.03
73141;SHT31;61339;50.558;4.696;2023-07-24T10:23:37;19.66;79.58
73141;SHT31;61339;50.558;4.696;2023-07-24T10:26:06;19.72;77.68
73141;SHT31;61339;50.558;4.696;2023-07-24T10:28:37;20.21;76.88
73141;SHT31;61339;50.558;4.696;2023-07-24T10:31:23;20.58;73.41
73141;SHT31;61339;50.558;4.696;2023-07-24T10:33:49;21.42;72.77
73141;SHT31;61339;50.558;4.696;2023-07-24T10:36:20;22.70;69.17
73141;SHT31;61339;50.558;4.696;2023-07-24T10:38:52;25.35;59.79
73141;SHT31;61339;50.558;4.696;2023-07-24T10:41:18;26.73;54.85
73141;SHT31;61339;50.558;4.696;2023-07-24T10:43:48;25.51;57.53
73141;SHT31;61339;50.558;4.696;2023-07-24T10:46:15;24.53;60.61
73141;SHT31;61339;50.558;4.696;2023-07-24T10:48:45;23.75;63.10
73141;SHT31;61339;50.558;4.696;2023-07-24T10:51:11;23.22;64.39
73141;SHT31;61339;50.558;4.696;2023-07-24T10:53:44;22.96;65.28
73141;SHT31;61339;50.558;4.696;2023-07-24T10:56:10;22.53;65.06
73141;SHT31;61339;50.558;4.696;2023-07-24T10:58:35;22.11;66.62
73141;SHT31;61339;50.558;4.696;2023-07-24T11:01:04;21.75;67.65
73141;SHT31;61339;50.558;4.696;2023-07-24T11:03:30;21.54;69.61
73141;SHT31;61339;50.558;4.696;2023-07-24T11:05:57;21.42;69.67
73141;SHT31;61339;50.558;4.696;2023-07-24T11:08:23;21.27;69.92
73141;SHT31;61339;50.558;4.696;2023-07-24T11:10:51;21.54;69.83
73141;SHT31;61339;50.558;4.696;2023-07-24T11:13:25;22.42;67.50
73141;SHT31;61339;50.558;4.696;2023-07-24T11:15:51;22.18;67.61
73141;SHT31;61339;50.558;4.696;2023-07-24T11:18:17;22.15;68.41
73141;SHT31;61339;50.558;4.696;2023-07-24T11:20:50;22.42;67.66
73141;SHT31;61339;50.558;4.696;2023-07-24T11:23:16;22.45;68.06
73141;SHT31;61339;50.558;4.696;2023-07-24T11:25:42;22.56;66.62
73141;SHT31;61339;50.558;4.696;2023-07-24T11:28:10;22.56;67.22
73141;SHT31;61339;50.558;4.696;2023-07-24T11:30:36;22.28;68.51
73141;SHT31;61339;50.558;4.696;2023-07-24T11:33:08;21.78;68.22
73141;SHT31;61339;50.558;4.696;2023-07-24T11:35:35;21.42;71.36
73141;SHT31;61339;50.558;4.696;2023-07-24T11:38:01;21.33;70.35
73141;SHT31;61339;50.558;4.696;2023-07-24T11:40:38;21.25;71.28
73141;SHT31;61339;50.558;4.696;2023-07-24T11:43:04;21.29;69.72
73141;SHT31;61339;50.558;4.696;2023-07-24T11:45:30;21.36;69.47
73141;SHT31;61339;50.558;4.696;2023-07-24T11:47:56;21.49;69.53
73141;SHT31;61339;50.558;4.696;2023-07-24T11:50:22;21.53;69.64
73141;SHT31;61339;50.558;4.696;2023-07-24T11:52:50;21.49;70.00
73141;SHT31;61339;50.558;4.696;2023-07-24T11:55:17;21.53;69.04
73141;SHT31;61339;50.558;4.696;2023-07-24T11:57:43;21.70;67.09
73141;SHT31;61339;50.558;4.696;2023-07-24T12:00:19;22.80;63.80
73141;SHT31;61339;50.558;4.696;2023-07-24T12:02:45;23.69;62.15
73141;SHT31;61339;50.558;4.696;2023-07-24T12:05:11;24.99;57.51
73141;SHT31;61339;50.558;4.696;2023-07-24T12:07:36;27.68;51.59
73141;SHT31;61339;50.558;4.696;2023-07-24T12:10:03;29.49;46.11
73141;SHT31;61339;50.558;4.696;2023-07-24T12:12:43;30.85;42.66
73141;SHT31;61339;50.558;4.696;2023-07-24T12:15:10;31.06;42.06
73141;SHT31;61339;50.558;4.696;2023-07-24T12:17:35;32.19;40.61
73141;SHT31;61339;50.558;4.696;2023-07-24T12:20:01;32.28;40.31
73141;SHT31;61339;50.558;4.696;2023-07-24T12:22:27;31.20;41.05
73141;SHT31;61339;50.558;4.696;2023-07-24T12:24:53;30.68;42.24
73141;SHT31;61339;50.558;4.696;2023-07-24T12:27:18;30.72;42.05
73141;SHT31;61339;50.558;4.696;2023-07-24T12:29:44;31.08;40.86
73141;SHT31;61339;50.558;4.696;2023-07-24T12:32:09;31.71;38.14
73141;SHT31;61339;50.558;4.696;2023-07-24T12:34:34;32.91;35.93
73141;SHT31;61339;50.558;4.696;2023-07-24T12:37:00;32.52;36.36
73141;SHT31;61339;50.558;4.696;2023-07-24T12:39:25;31.87;38.34
73141;SHT31;61339;50.558;4.696;2023-07-24T12:41:51;32.15;38.20
73141;SHT31;61339;50.558;4.696;2023-07-24T12:44:16;30.23;41.42
73141;SHT31;61339;50.558;4.696;2023-07-24T12:46:41;30.79;41.60
73141;SHT31;61339;50.558;4.696;2023-07-24T12:49:07;29.61;43.20
73141;SHT31;61339;50.558;4.696;2023-07-24T12:51:32;28.67;44.68
73141;SHT31;61339;50.558;4.696;2023-07-24T12:53:58;27.68;46.17
73141;SHT31;61339;50.558;4.696;2023-07-24T12:56:23;26.99;47.70
73141;SHT31;61339;50.558;4.696;2023-07-24T12:58:48;26.21;49.42
73141;SHT31;61339;50.558;4.696;2023-07-24T13:01:14;25.71;51.39
73141;SHT31;61339;50.558;4.696;2023-07-24T13:03:40;25.43;52.76
73141;SHT31;61339;50.558;4.696;2023-07-24T13:06:05;25.28;52.46
73141;SHT31;61339;50.558;4.696;2023-07-24T13:08:30;25.09;52.38
73141;SHT31;61339;50.558;4.696;2023-07-24T13:10:56;24.72;53.82
73141;SHT31;61339;50.558;4.696;2023-07-24T13:13:21;24.43;55.26
73141;SHT31;61339;50.558;4.696;2023-07-24T13:15:46;24.29;57.17
73141;SHT31;61339;50.558;4.696;2023-07-24T13:18:12;24.10;56.09
73141;SHT31;61339;50.558;4.696;2023-07-24T13:20:40;23.90;57.21
73141;SHT31;61339;50.558;4.696;2023-07-24T13:23:05;23.73;57.55
73141;SHT31;61339;50.558;4.696;2023-07-24T13:25:31;23.59;58.36
73141;SHT31;61339;50.558;4.696;2023-07-24T13:27:56;23.68;57.98
73141;SHT31;61339;50.558;4.696;2023-07-24T13:30:22;23.72;58.72
73141;SHT31;61339;50.558;4.696;2023-07-24T13:32:47;24.02;59.24
73141;SHT31;61339;50.558;4.696;2023-07-24T13:35:12;24.26;59.31
73141;SHT31;61339;50.558;4.696;2023-07-24T13:37:38;24.30;58.98
73141;SHT31;61339;50.558;4.696;2023-07-24T13:40:04;24.30;57.96
73141;SHT31;61339;50.558;4.696;2023-07-24T13:42:29;24.41;58.49
73141;SHT31;61339;50.558;4.696;2023-07-24T13:44:54;24.50;58.35
73141;SHT31;61339;50.558;4.696;2023-07-24T13:47:20;24.49;58.27
73141;SHT31;61339;50.558;4.696;2023-07-24T13:49:46;24.33;58.23
73141;SHT31;61339;50.558;4.696;2023-07-24T13:52:11;24.09;59.40
73141;SHT31;61339;50.558;4.696;2023-07-24T13:54:37;23.54;60.00
73141;SHT31;61339;50.558;4.696;2023-07-24T13:57:02;23.40;62.28
73141;SHT31;61339;50.558;4.696;2023-07-24T13:59:28;23.30;61.70
73141;SHT31;61339;50.558;4.696;2023-07-24T14:01:53;23.44;61.64
73141;SHT31;61339;50.558;4.696;2023-07-24T14:04:18;23.65;61.92
73141;SHT31;61339;50.558;4.696;2023-07-24T14:06:44;23.88;61.26
73141;SHT31;61339;50.558;4.696;2023-07-24T14:09:10;24.06;60.44
73141;SHT31;61339;50.558;4.696;2023-07-24T14:11:36;23.95;61.17
73141;SHT31;61339;50.558;4.696;2023-07-24T14:14:01;23.96;60.33
73141;SHT31;61339;50.558;4.696;2023-07-24T14:16:26;23.89;59.75
73141;SHT31;61339;50.558;4.696;2023-07-24T14:18:52;23.78;58.20
73141;SHT31;61339;50.558;4.696;2023-07-24T14:21:17;23.65;59.08
73141;SHT31;61339;50.558;4.696;2023-07-24T14:23:42;23.42;61.56
73141;SHT31;61339;50.558;4.696;2023-07-24T14:26:08;23.11;61.30
73141;SHT31;61339;50.558;4.696;2023-07-24T14:28:33;22.89;62.97
73141;SHT31;61339;50.558;4.696;2023-07-24T14:30:58;22.66;60.49
73141;SHT31;61339;50.558;4.696;2023-07-24T14:33:24;22.49;60.02
73141;SHT31;61339;50.558;4.696;2023-07-24T14:35:49;22.46;60.27
73141;SHT31;61339;50.558;4.696;2023-07-24T14:38:15;22.48;59.59
73141;SHT31;61339;50.558;4.696;2023-07-24T14:40:40;22.45;58.30
73141;SHT31;61339;50.558;4.696;2023-07-24T14:43:06;22.45;58.67
73141;SHT31;61339;50.558;4.696;2023-07-24T14:45:31;22.41;59.43
73141;SHT31;61339;50.558;4.696;2023-07-24T14:47:56;22.49;58.12
73141;SHT31;61339;50.558;4.696;2023-07-24T14:50:22;22.62;57.64
73141;SHT31;61339;50.558;4.696;2023-07-24T14:52:47;22.57;58.01
73141;SHT31;61339;50.558;4.696;2023-07-24T14:55:14;22.43;59.53
73141;SHT31;61339;50.558;4.696;2023-07-24T14:57:39;22.42;60.69
73141;SHT31;61339;50.558;4.696;2023-07-24T15:00:06;22.39;60.94
73141;SHT31;61339;50.558;4.696;2023-07-24T15:02:32;22.22;60.45
73141;SHT31;61339;50.558;4.696;2023-07-24T15:04:58;22.18;61.46
73141;SHT31;61339;50.558;4.696;2023-07-24T15:07:24;22.22;60.72
73141;SHT31;61339;50.558;4.696;2023-07-24T15:09:49;22.26;61.57
73141;SHT31;61339;50.558;4.696;2023-07-24T15:12:15;22.32;61.72
73141;SHT31;61339;50.558;4.696;2023-07-24T15:14:40;22.31;60.33
73141;SHT31;61339;50.558;4.696;2023-07-24T15:17:05;22.36;60.67
73141;SHT31;61339;50.558;4.696;2023-07-24T15:19:32;22.52;60.11
73141;SHT31;61339;50.558;4.696;2023-07-24T15:21:57;22.43;59.94
73141;SHT31;61339;50.558;4.696;2023-07-24T15:24:23;22.49;59.35